createdAt,value
2023-05-14T00:01:57.370Z,266
2023-05-14T00:04:12.538Z,266
2023-05-14T00:06:23.757Z,266
2023-05-14T00:08:34.626Z,266
2023-05-14T00:10:47.436Z,266
2023-05-14T00:12:57.737Z,266
2023-05-14T00:15:10.159Z,266
2023-05-14T00:17:21.320Z,268
2023-05-14T00:19:33.987Z,268
2023-05-14T00:21:45.610Z,268
2023-05-14T00:23:56.641Z,269
2023-05-14T00:26:07.534Z,268
2023-05-14T00:28:20.113Z,268
2023-05-14T00:30:31.736Z,268
2023-05-14T00:32:44.193Z,268
2023-05-14T00:34:56.341Z,268
2023-05-14T00:37:07.755Z,268
2023-05-14T00:39:19.295Z,268
2023-05-14T00:41:29.862Z,268
2023-05-14T00:43:41.042Z,268
2023-05-14T00:45:53.719Z,268
2023-05-14T00:48:06.014Z,268
2023-05-14T00:50:16.652Z,267
2023-05-14T00:52:28.297Z,267
2023-05-14T00:54:40.157Z,267
2023-05-14T00:56:54.994Z,267
2023-05-14T00:59:17.738Z,268
2023-05-14T01:01:29.820Z,266
2023-05-14T01:03:42.603Z,265
2023-05-14T01:05:53.994Z,266
2023-05-14T01:08:05.075Z,265
2023-05-14T01:10:16.008Z,278
2023-05-14T01:12:27.617Z,276
2023-05-14T01:14:39.159Z,277
2023-05-14T01:16:51.985Z,277
2023-05-14T01:19:04.392Z,277
2023-05-14T01:21:16.771Z,277
2023-05-14T01:23:28.712Z,277
2023-05-14T01:25:42.179Z,277
2023-05-14T01:27:56.236Z,277
2023-05-14T01:30:11.381Z,276
2023-05-14T01:32:22.653Z,274
2023-05-14T01:34:34.293Z,277
2023-05-14T01:36:48.034Z,276
2023-05-14T01:39:13.214Z,276
2023-05-14T01:41:25.075Z,276
2023-05-14T01:43:35.936Z,276
2023-05-14T01:45:47.955Z,277
2023-05-14T01:48:01.887Z,274
2023-05-14T01:50:13.634Z,276
2023-05-14T01:52:25.310Z,276
2023-05-14T01:54:38.271Z,276
2023-05-14T01:56:49.836Z,276
2023-05-14T01:59:01.117Z,276
2023-05-14T02:01:15.920Z,274
2023-05-14T02:03:27.241Z,274
2023-05-14T02:05:39.130Z,276
2023-05-14T02:07:51.236Z,273
2023-05-14T02:10:05.297Z,273
2023-05-14T02:12:16.532Z,273
2023-05-14T02:14:29.073Z,274
2023-05-14T02:16:40.020Z,276
2023-05-14T02:18:52.959Z,273
2023-05-14T02:21:04.516Z,276
2023-05-14T02:23:16.653Z,274
2023-05-14T02:25:31.296Z,273
2023-05-14T02:27:43.876Z,273
2023-05-14T02:29:57.972Z,274
2023-05-14T02:32:10.752Z,272
2023-05-14T02:34:21.717Z,273
2023-05-14T02:36:33.173Z,272
2023-05-14T02:38:44.758Z,274
2023-05-14T02:40:56.073Z,274
2023-05-14T02:43:07.314Z,274
2023-05-14T02:45:19.258Z,274
2023-05-14T02:47:30.245Z,276
2023-05-14T02:49:45.898Z,276
2023-05-14T02:51:58.138Z,276
2023-05-14T02:54:10.917Z,276
2023-05-14T02:56:23.468Z,276
2023-05-14T02:58:36.290Z,276
2023-05-14T03:00:49.727Z,276
2023-05-14T03:03:04.242Z,276
2023-05-14T03:05:19.495Z,276
2023-05-14T03:07:30.992Z,276
2023-05-14T03:09:43.455Z,276
2023-05-14T03:11:55.320Z,276
2023-05-14T03:14:07.438Z,276
2023-05-14T03:16:19.424Z,276
2023-05-14T03:18:33.790Z,276
2023-05-14T03:20:47.225Z,273
2023-05-14T03:22:59.467Z,261
2023-05-14T03:25:11.974Z,258
2023-05-14T03:27:24.160Z,262
2023-05-14T03:29:35.720Z,257
2023-05-14T03:31:48.235Z,258
2023-05-14T03:34:00.235Z,257
2023-05-14T03:36:14.720Z,262
2023-05-14T03:38:27.238Z,256
2023-05-14T03:40:39.855Z,260
2023-05-14T03:42:51.439Z,260
2023-05-14T03:45:03.777Z,257
2023-05-14T03:47:17.760Z,256
2023-05-14T03:49:29.277Z,255
2023-05-14T03:51:41.576Z,253
2023-05-14T03:53:56.473Z,253
2023-05-14T03:56:10.713Z,259
2023-05-14T03:58:23.638Z,254
2023-05-14T04:00:36.743Z,253
2023-05-14T04:02:50.708Z,253
2023-05-14T04:05:03.260Z,240
2023-05-14T04:07:15.956Z,249
2023-05-14T04:09:27.620Z,247
2023-05-14T04:11:40.174Z,253
2023-05-14T04:13:52.336Z,250
2023-05-14T04:16:04.913Z,228
2023-05-14T04:18:18.058Z,228
2023-05-14T04:20:33.436Z,229
2023-05-14T04:22:46.036Z,229
2023-05-14T04:24:58.317Z,234
2023-05-14T04:27:12.055Z,234
2023-05-14T04:29:25.501Z,230
2023-05-14T04:31:38.371Z,230
2023-05-14T04:33:50.397Z,233
2023-05-14T04:36:02.675Z,233
2023-05-14T04:38:14.952Z,230
2023-05-14T04:40:28.311Z,233
2023-05-14T04:42:41.694Z,233
2023-05-14T04:44:54.893Z,233
2023-05-14T04:47:08.950Z,233
2023-05-14T04:49:22.287Z,234
2023-05-14T04:51:35.452Z,235
2023-05-14T04:53:47.806Z,234
2023-05-14T04:56:00.168Z,233
2023-05-14T04:58:14.432Z,233
2023-05-14T05:00:28.711Z,228
2023-05-14T05:02:41.066Z,230
2023-05-14T05:04:54.406Z,229
2023-05-14T05:07:09.479Z,231
2023-05-14T05:09:21.556Z,236
2023-05-14T05:11:36.262Z,235
2023-05-14T05:13:49.098Z,236
2023-05-14T05:16:01.726Z,235
2023-05-14T05:18:15.464Z,235
2023-05-14T05:20:27.776Z,234
2023-05-14T05:22:42.477Z,235
2023-05-14T05:24:56.998Z,235
2023-05-14T05:27:09.455Z,235
2023-05-14T05:29:25.240Z,235
2023-05-14T05:31:39.637Z,235
2023-05-14T05:33:51.198Z,234
2023-05-14T05:36:03.502Z,234
2023-05-14T05:38:14.479Z,236
2023-05-14T05:40:27.980Z,236
2023-05-14T05:42:40.237Z,231
2023-05-14T05:44:52.212Z,235
2023-05-14T05:47:03.445Z,233
2023-05-14T05:49:14.693Z,233
2023-05-14T05:51:25.935Z,235
2023-05-14T05:53:38.772Z,234
2023-05-14T05:55:49.692Z,235
2023-05-14T05:58:03.121Z,235
2023-05-14T06:00:17.014Z,234
2023-05-14T06:02:28.224Z,234
2023-05-14T06:04:40.672Z,234
2023-05-14T06:06:53.250Z,234
2023-05-14T06:09:02.854Z,233
2023-05-14T06:11:13.250Z,234
2023-05-14T06:13:35.636Z,233
2023-05-14T06:15:47.618Z,228
2023-05-14T06:18:03.667Z,230
2023-05-14T06:20:16.196Z,235
2023-05-14T06:22:30.379Z,235
2023-05-14T06:24:42.902Z,233
2023-05-14T06:27:09.437Z,233
2023-05-14T06:29:24.334Z,230
2023-05-14T06:31:37.818Z,229
2023-05-14T06:33:50.542Z,225
2023-05-14T06:36:03.177Z,233
2023-05-14T06:38:18.252Z,230
2023-05-14T06:40:31.543Z,233
2023-05-14T06:42:45.977Z,233
2023-05-14T06:44:57.093Z,233
2023-05-14T06:47:09.373Z,233
2023-05-14T06:49:21.376Z,234
2023-05-14T06:51:34.096Z,234
2023-05-14T06:53:48.194Z,233
2023-05-14T06:56:00.702Z,230
2023-05-14T06:58:13.574Z,235
2023-05-14T07:00:29.533Z,233
2023-05-14T07:02:43.168Z,234
2023-05-14T07:04:56.152Z,236
2023-05-14T07:07:11.533Z,235
2023-05-14T07:09:27.737Z,235
2023-05-14T07:11:40.879Z,236
2023-05-14T07:13:55.996Z,235
2023-05-14T07:16:08.174Z,234
2023-05-14T07:18:25.171Z,235
2023-05-14T07:20:36.370Z,234
2023-05-14T07:22:49.334Z,233
2023-05-14T07:25:14.987Z,234
2023-05-14T07:27:29.414Z,236
2023-05-14T07:29:41.856Z,235
2023-05-14T07:31:56.515Z,236
2023-05-14T07:34:11.602Z,236
2023-05-14T07:36:26.294Z,235
2023-05-14T07:38:41.671Z,235
2023-05-14T07:40:59.711Z,235
2023-05-14T07:43:18.634Z,236
2023-05-14T07:45:31.927Z,237
2023-05-14T07:47:43.454Z,236
2023-05-14T07:49:54.329Z,236
2023-05-14T07:52:06.248Z,234
2023-05-14T07:54:18.034Z,235
2023-05-14T07:56:40.930Z,235
2023-05-14T07:58:52.643Z,235
2023-05-14T08:01:02.771Z,235
2023-05-14T08:03:14.075Z,237
2023-05-14T08:05:27.072Z,235
2023-05-14T08:07:38.572Z,237
2023-05-14T08:09:49.489Z,235
2023-05-14T08:12:08.732Z,235
2023-05-14T08:14:22.667Z,237
2023-05-14T08:16:34.886Z,236
2023-05-14T08:18:46.829Z,237
2023-05-14T08:20:59.262Z,243
2023-05-14T08:23:12.411Z,241
2023-05-14T08:25:24.025Z,240
2023-05-14T08:27:37.253Z,238
2023-05-14T08:29:49.996Z,240
2023-05-14T08:32:22.483Z,238
2023-05-14T08:34:36.534Z,242
2023-05-14T08:37:04.500Z,238
2023-05-14T08:39:17.698Z,240
2023-05-14T08:41:38.015Z,240
2023-05-14T08:43:51.038Z,240
2023-05-14T08:46:03.773Z,242
2023-05-14T08:48:16.258Z,242
2023-05-14T08:50:28.946Z,240
2023-05-14T08:52:41.977Z,240
2023-05-14T08:54:56.628Z,240
2023-05-14T08:57:10.614Z,242
2023-05-14T08:59:23.913Z,242
2023-05-14T09:01:38.321Z,243
2023-05-14T09:03:52.580Z,244
2023-05-14T09:06:05.450Z,242
2023-05-14T09:08:21.438Z,240
2023-05-14T09:10:33.854Z,238
2023-05-14T09:12:48.137Z,242
2023-05-14T09:15:03.416Z,244
2023-05-14T09:17:17.288Z,243
2023-05-14T09:19:34.792Z,243
2023-05-14T09:21:47.800Z,244
2023-05-14T09:24:01.286Z,243
2023-05-14T09:26:14.728Z,244
2023-05-14T09:28:26.834Z,244
2023-05-14T09:30:38.301Z,244
2023-05-14T09:32:55.834Z,244
2023-05-14T09:35:08.821Z,243
2023-05-14T09:37:21.647Z,242
2023-05-14T09:39:35.813Z,243
2023-05-14T09:41:51.990Z,242
2023-05-14T09:44:03.708Z,242
2023-05-14T10:18:27.355Z,240
2023-05-14T10:20:42.133Z,235
2023-05-14T10:22:56.308Z,242
2023-05-14T10:25:08.831Z,240
2023-05-14T10:27:19.909Z,244
2023-05-14T10:29:31.345Z,243
2023-05-14T10:31:42.337Z,242
2023-05-14T10:33:53.607Z,243
2023-05-14T10:36:04.610Z,242
2023-05-14T10:38:15.143Z,240
2023-05-14T10:40:27.784Z,238
2023-05-14T10:42:39.810Z,242
2023-05-14T10:44:50.064Z,242
2023-05-14T10:47:01.487Z,244
2023-05-14T10:49:23.253Z,240
2023-05-14T10:51:52.602Z,241
2023-05-14T10:54:05.944Z,242
2023-05-14T10:56:23.584Z,242
2023-05-14T10:58:35.278Z,242
2023-05-14T11:00:49.725Z,242
2023-05-14T11:03:02.324Z,243
2023-05-14T11:05:14.378Z,240
2023-05-14T11:07:27.923Z,241
2023-05-14T11:09:41.484Z,240
2023-05-14T11:11:55.285Z,238
2023-05-14T11:14:09.591Z,256
2023-05-14T11:16:30.187Z,255
2023-05-14T11:18:46.983Z,259
2023-05-14T11:21:00.838Z,265
2023-05-14T11:23:14.212Z,267
2023-05-14T11:25:30.992Z,264
2023-05-14T11:27:42.406Z,268
2023-05-14T11:29:53.550Z,264
2023-05-14T11:32:17.830Z,265
2023-05-14T11:34:33.428Z,264
2023-05-14T11:36:43.529Z,264
2023-05-14T11:38:57.251Z,264
2023-05-14T11:41:12.541Z,262
2023-05-14T11:43:28.133Z,262
2023-05-14T11:45:45.718Z,277
2023-05-14T11:47:57.528Z,279
2023-05-14T11:50:12.950Z,279
2023-05-14T11:52:23.710Z,279
2023-05-14T11:54:40.515Z,280
2023-05-14T11:56:52.427Z,277
2023-05-14T11:59:05.789Z,277
2023-05-14T12:01:19.903Z,280
2023-05-14T12:03:31.530Z,280
2023-05-14T12:05:42.702Z,278
2023-05-14T12:07:55.603Z,277
2023-05-14T12:10:08.368Z,278
2023-05-14T12:12:19.154Z,277
2023-05-14T12:14:34.309Z,277
2023-05-14T12:16:48.783Z,277
2023-05-14T12:19:02.183Z,276
2023-05-14T12:21:16.028Z,277
2023-05-14T12:23:28.321Z,274
2023-05-14T12:25:39.119Z,277
2023-05-14T12:27:49.581Z,278
2023-05-14T12:30:26.142Z,278
2023-05-14T12:32:37.819Z,277
2023-05-14T12:34:50.775Z,274
2023-05-14T12:37:02.922Z,276
2023-05-14T12:39:23.929Z,277
2023-05-14T12:41:40.483Z,278
2023-05-14T12:43:54.685Z,276
2023-05-14T12:46:06.807Z,276
2023-05-14T12:48:24.328Z,278
2023-05-14T12:50:36.486Z,277
2023-05-14T12:52:49.683Z,273
2023-05-14T12:55:01.784Z,273
2023-05-14T12:57:15.344Z,274
2023-05-14T12:59:30.863Z,269
2023-05-14T13:01:44.445Z,274
2023-05-14T13:03:58.522Z,276
2023-05-14T13:06:10.992Z,273
2023-05-14T13:08:23.126Z,272
2023-05-14T13:10:45.203Z,266
2023-05-14T13:13:02.205Z,261
2023-05-14T13:15:14.443Z,248
2023-05-14T13:17:25.777Z,252
2023-05-14T13:19:36.465Z,257
2023-05-14T13:21:47.526Z,261
2023-05-14T13:24:01.046Z,249
2023-05-14T13:26:17.647Z,270
2023-05-14T13:28:30.842Z,272
2023-05-14T13:30:44.757Z,273
2023-05-14T13:33:00.618Z,273
2023-05-14T13:35:12.194Z,276
2023-05-14T13:37:26.740Z,274
2023-05-14T13:39:45.268Z,276
2023-05-14T13:42:02.081Z,277
2023-05-14T13:44:19.055Z,276
2023-05-14T13:46:31.257Z,277
2023-05-14T13:48:43.084Z,277
2023-05-14T13:50:55.050Z,272
2023-05-14T13:53:05.603Z,273
2023-05-14T13:55:19.866Z,274
2023-05-14T13:57:30.690Z,270
2023-05-14T13:59:43.048Z,270
2023-05-14T14:01:55.218Z,273
2023-05-14T14:04:08.022Z,274
2023-05-14T14:06:26.768Z,268
2023-05-14T14:08:43.122Z,272
2023-05-14T14:11:00.201Z,272
2023-05-14T14:13:14.505Z,266
2023-05-14T14:15:28.749Z,272
2023-05-14T14:17:47.574Z,270
2023-05-14T14:20:02.230Z,267
2023-05-14T14:22:19.506Z,270
2023-05-14T14:24:46.592Z,272
2023-05-14T14:27:03.258Z,276
2023-05-14T14:29:15.524Z,264
2023-05-14T14:34:35.558Z,277
2023-05-14T14:36:51.031Z,254
2023-05-14T14:39:03.558Z,277
2023-05-14T14:41:15.494Z,268
2023-05-14T14:43:28.590Z,272
2023-05-14T14:45:43.146Z,270
2023-05-14T14:47:58.421Z,262
2023-05-14T14:50:19.215Z,266
2023-05-14T14:52:31.595Z,267
2023-05-14T14:54:44.952Z,268
2023-05-14T14:56:58.489Z,262
2023-05-14T14:59:11.252Z,270
2023-05-14T15:01:25.229Z,266
2023-05-14T15:03:40.288Z,264
2023-05-14T15:05:54.998Z,266
2023-05-14T15:08:06.114Z,267
2023-05-14T15:10:19.841Z,272
2023-05-14T15:12:45.994Z,268
2023-05-14T15:14:59.140Z,268
2023-05-14T15:17:13.278Z,270
2023-05-14T15:19:25.019Z,268
2023-05-14T15:21:38.454Z,270
2023-05-14T15:23:52.217Z,268
2023-05-14T15:26:07.737Z,268
2023-05-14T15:28:22.374Z,272
2023-05-14T15:30:33.418Z,269
2023-05-14T15:32:47.686Z,268
2023-05-14T15:35:01.133Z,267
2023-05-14T15:37:41.810Z,266
2023-05-14T15:40:02.895Z,267
2023-05-14T15:42:17.407Z,265
2023-05-14T15:44:30.558Z,262
2023-05-14T15:46:45.548Z,265
2023-05-14T15:48:57.375Z,265
2023-05-14T15:51:11.514Z,265
2023-05-14T15:53:26.641Z,262
2023-05-14T15:55:45.032Z,273
2023-05-14T15:58:03.380Z,264
2023-05-14T16:00:14.737Z,272
2023-05-14T16:02:32.680Z,268
2023-05-14T16:04:48.761Z,267
2023-05-14T16:07:14.052Z,267
2023-05-14T16:09:25.331Z,267
2023-05-14T16:11:39.598Z,264
2023-05-14T16:13:57.692Z,270
2023-05-14T16:16:09.445Z,265
2023-05-14T16:18:25.598Z,262
2023-05-14T16:20:39.553Z,266
2023-05-14T16:22:52.145Z,262
2023-05-14T16:25:08.670Z,255
2023-05-14T16:27:33.150Z,265
2023-05-14T16:29:48.313Z,267
2023-05-14T16:32:00.383Z,265
2023-05-14T16:34:13.771Z,262
2023-05-14T16:36:33.149Z,265
2023-05-14T16:39:12.882Z,262
2023-05-14T16:41:26.673Z,265
2023-05-14T16:43:44.068Z,264
2023-05-14T16:46:04.701Z,258
2023-05-14T16:48:23.730Z,262
2023-05-14T16:50:38.908Z,262
2023-05-14T16:52:50.525Z,269
2023-05-14T16:55:03.273Z,273
2023-05-14T16:57:18.622Z,274
2023-05-14T16:59:30.698Z,274
2023-05-14T17:01:55.436Z,273
2023-05-14T17:04:08.217Z,273
2023-05-14T17:06:21.149Z,272
2023-05-14T17:08:33.525Z,273
2023-05-14T17:10:48.720Z,270
2023-05-14T17:13:02.472Z,270
2023-05-14T17:15:19.123Z,272
2023-05-14T17:17:32.146Z,272
2023-05-14T17:19:47.401Z,271
2023-05-14T17:22:01.879Z,269
2023-05-14T17:24:18.358Z,268
2023-05-14T17:26:32.465Z,270
2023-05-14T17:28:45.256Z,270
2023-05-14T17:31:04.102Z,272
2023-05-14T17:33:24.021Z,268
2023-05-14T17:35:50.744Z,267
2023-05-14T17:38:05.258Z,267
2023-05-14T17:40:23.558Z,265
2023-05-14T17:42:36.843Z,268
2023-05-14T17:44:48.614Z,266
2023-05-14T17:47:00.346Z,264
2023-05-14T17:49:15.859Z,265
2023-05-14T17:51:30.925Z,264
2023-05-14T17:53:42.713Z,267
2023-05-14T17:56:02.108Z,267
2023-05-14T17:58:16.299Z,262
2023-05-14T18:00:29.768Z,262
2023-05-14T18:02:42.164Z,265
2023-05-14T18:04:56.121Z,268
2023-05-14T18:07:09.153Z,266
2023-05-14T18:09:20.797Z,265
2023-05-14T18:11:34.298Z,265
2023-05-14T18:13:47.857Z,265
2023-05-14T18:16:01.266Z,266
2023-05-14T18:18:14.164Z,264
2023-05-14T18:20:26.362Z,268
2023-05-14T18:22:39.221Z,269
2023-05-14T18:24:53.432Z,259
2023-05-14T18:27:09.224Z,257
2023-05-14T18:29:24.041Z,273
2023-05-14T18:31:37.563Z,274
2023-05-14T18:33:52.163Z,271
2023-05-14T18:36:06.254Z,274
2023-05-14T18:38:20.556Z,274
2023-05-14T18:40:35.557Z,270
2023-05-14T18:42:48.685Z,268
2023-05-14T18:45:01.648Z,267
2023-05-14T18:47:17.539Z,267
2023-05-14T18:49:29.721Z,267
2023-05-14T18:51:45.546Z,267
2023-05-14T18:54:00.604Z,261
2023-05-14T18:56:15.900Z,259
2023-05-14T18:58:29.361Z,262
2023-05-14T19:00:47.365Z,264
2023-05-14T19:03:06.579Z,267
2023-05-14T19:05:20.144Z,261
2023-05-14T19:07:33.917Z,262
2023-05-14T19:09:47.284Z,271
2023-05-14T19:12:02.818Z,272
2023-05-14T19:14:15.456Z,265
2023-05-14T19:16:28.249Z,265
2023-05-14T19:18:43.217Z,266
2023-05-14T19:20:57.479Z,260
2023-05-14T19:23:11.444Z,254
2023-05-14T19:25:26.634Z,272
2023-05-14T19:27:41.496Z,268
2023-05-14T19:29:55.176Z,273
2023-05-14T19:32:12.056Z,271
2023-05-14T19:34:26.915Z,270
2023-05-14T19:36:39.434Z,270
2023-05-14T19:38:52.320Z,257
2023-05-14T19:41:05.774Z,266
2023-05-14T19:43:19.598Z,262
2023-05-14T19:45:32.306Z,259
2023-05-14T19:47:48.508Z,259
2023-05-14T19:50:03.501Z,260
2023-05-14T19:52:20.559Z,259
2023-05-14T19:54:42.196Z,264
2023-05-14T19:56:57.384Z,273
2023-05-14T19:59:12.785Z,272
2023-05-14T20:01:27.016Z,270
2023-05-14T20:03:45.659Z,273
2023-05-14T20:05:58.221Z,272
2023-05-14T20:08:11.553Z,270
2023-05-14T20:10:26.532Z,265
2023-05-14T20:12:40.461Z,266
2023-05-14T20:14:57.755Z,249
2023-05-14T20:17:11.511Z,266
2023-05-14T20:19:29.066Z,262
2023-05-14T20:21:40.741Z,256
2023-05-14T20:23:54.977Z,267
2023-05-14T20:26:08.469Z,261
2023-05-14T20:28:24.336Z,262
2023-05-14T20:30:40.027Z,261
2023-05-14T20:32:52.704Z,259
2023-05-14T20:35:05.080Z,257
2023-05-14T20:37:19.259Z,257
2023-05-14T20:39:34.266Z,259
2023-05-14T20:41:46.294Z,256
2023-05-14T20:43:59.401Z,259
2023-05-14T20:46:11.978Z,260
2023-05-14T20:48:23.416Z,259
2023-05-14T20:50:37.159Z,255
2023-05-14T20:52:52.938Z,256
2023-05-14T20:55:08.682Z,257
2023-05-14T20:57:22.740Z,256
2023-05-14T20:59:39.198Z,253
2023-05-14T21:01:51.148Z,261
2023-05-14T21:04:07.398Z,261
2023-05-14T21:06:19.920Z,259
2023-05-14T21:08:35.959Z,257
2023-05-14T21:10:52.356Z,264
2023-05-14T21:13:06.616Z,265
2023-05-14T21:15:21.573Z,264
2023-05-14T21:17:36.870Z,264
2023-05-14T21:19:51.178Z,264
2023-05-14T21:22:04.815Z,266
2023-05-14T21:24:18.258Z,265
2023-05-14T21:26:30.027Z,266
2023-05-14T21:28:41.648Z,264
2023-05-14T21:30:55.356Z,267
2023-05-14T21:33:07.849Z,268
2023-05-14T21:35:20.461Z,249
2023-05-14T21:37:32.555Z,271
2023-05-14T21:39:44.194Z,268
2023-05-14T21:41:56.576Z,269
2023-05-14T21:44:09.855Z,276
2023-05-14T21:46:21.328Z,276
2023-05-14T21:48:34.222Z,276
2023-05-14T21:50:45.878Z,277
2023-05-14T21:52:59.132Z,276
2023-05-14T21:55:11.501Z,272
2023-05-14T21:57:23.553Z,273
2023-05-14T21:59:38.881Z,273
2023-05-14T22:02:12.074Z,272
2023-05-14T22:04:27.275Z,270
2023-05-14T22:06:40.739Z,273
2023-05-14T22:08:53.477Z,270
2023-05-14T22:11:08.159Z,273
2023-05-14T22:13:19.814Z,273
2023-05-14T22:15:30.471Z,272
2023-05-14T22:17:41.966Z,273
2023-05-14T22:19:53.058Z,273
2023-05-14T22:22:07.324Z,272
2023-05-14T22:24:23.372Z,272
2023-05-14T22:26:38.839Z,266
2023-05-14T22:28:54.677Z,274
2023-05-14T22:31:08.353Z,272
2023-05-14T22:33:21.133Z,264
2023-05-14T22:35:33.951Z,272
2023-05-14T22:37:44.674Z,272
2023-05-14T22:39:55.341Z,272
2023-05-14T22:42:06.215Z,266
2023-05-14T22:44:16.959Z,266
2023-05-14T22:46:30.670Z,267
2023-05-14T22:48:44.015Z,264
2023-05-14T22:50:58.537Z,266
2023-05-14T22:53:11.697Z,267
2023-05-14T22:55:23.790Z,266
2023-05-14T22:57:36.093Z,265
2023-05-14T22:59:50.894Z,259
2023-05-14T23:02:02.622Z,262
2023-05-14T23:04:15.390Z,261
2023-05-14T23:06:27.879Z,259
2023-05-14T23:08:42.232Z,273
2023-05-14T23:10:52.071Z,273
2023-05-14T23:13:04.546Z,271
2023-05-14T23:15:15.891Z,268
2023-05-14T23:17:26.831Z,268
2023-05-14T23:19:38.183Z,270
2023-05-14T23:21:49.160Z,272
2023-05-14T23:23:59.193Z,266
2023-05-14T23:26:10.631Z,266
2023-05-14T23:28:20.355Z,267
2023-05-14T23:30:30.620Z,265
2023-05-14T23:32:42.076Z,272
2023-05-14T23:34:52.792Z,272
2023-05-14T23:37:03.434Z,268
2023-05-14T23:39:14.088Z,273
2023-05-14T23:41:26.534Z,272
2023-05-14T23:43:37.559Z,272
2023-05-14T23:45:48.394Z,272
2023-05-14T23:47:59.664Z,270
2023-05-14T23:50:09.915Z,270
2023-05-14T23:52:20.628Z,262
2023-05-14T23:54:31.008Z,265
2023-05-14T23:56:41.309Z,264
2023-05-14T23:58:51.870Z,265
